sensor_id;sensor_type;location;lat;lon;timestamp;P1;durP1;ratioP1;P2;durP2;ratioP2
11054;SDS011;5580;50.106;8.702;2022-11-20T00:02:19;29.13;;;17.97;;
11054;SDS011;5580;50.106;8.702;2022-11-20T00:04:44;28.67;;;17.23;;
11054;SDS011;5580;50.106;8.702;2022-11-20T00:07:10;26.93;;;17.17;;
11054;SDS011;5580;50.106;8.702;2022-11-20T00:09:35;30.87;;;18.40;;
11054;SDS011;5580;50.106;8.702;2022-11-20T00:12:01;28.60;;;17.77;;
11054;SDS011;5580;50.106;8.702;2022-11-20T00:14:26;28.67;;;17.33;;
11054;SDS011;5580;50.106;8.702;2022-11-20T00:16:52;28.83;;;17.83;;
11054;SDS011;5580;50.106;8.702;2022-11-20T00:19:17;28.90;;;17.90;;
11054;SDS011;5580;50.106;8.702;2022-11-20T00:21:43;28.77;;;17.60;;
11054;SDS011;5580;50.106;8.702;2022-11-20T00:24:09;30.50;;;18.23;;
11054;SDS011;5580;50.106;8.702;2022-11-20T00:26:35;27.57;;;17.40;;
11054;SDS011;5580;50.106;8.702;2022-11-20T00:29:01;28.03;;;17.40;;
11054;SDS011;5580;50.106;8.702;2022-11-20T00:31:27;26.70;;;17.17;;
11054;SDS011;5580;50.106;8.702;2022-11-20T00:33:54;27.27;;;17.00;;
11054;SDS011;5580;50.106;8.702;2022-11-20T00:36:23;28.30;;;17.80;;
11054;SDS011;5580;50.106;8.702;2022-11-20T00:38:54;30.60;;;18.33;;
11054;SDS011;5580;50.106;8.702;2022-11-20T00:41:21;28.10;;;17.93;;
11054;SDS011;5580;50.106;8.702;2022-11-20T00:43:47;28.87;;;17.73;;
11054;SDS011;5580;50.106;8.702;2022-11-20T00:46:17;28.60;;;17.13;;
11054;SDS011;5580;50.106;8.702;2022-11-20T00:48:44;28.90;;;17.97;;
11054;SDS011;5580;50.106;8.702;2022-11-20T00:51:11;29.03;;;17.77;;
11054;SDS011;5580;50.106;8.702;2022-11-20T00:53:38;29.53;;;18.00;;
11054;SDS011;5580;50.106;8.702;2022-11-20T00:56:04;31.30;;;18.67;;
11054;SDS011;5580;50.106;8.702;2022-11-20T00:58:32;28.63;;;18.17;;
11054;SDS011;5580;50.106;8.702;2022-11-20T01:03:31;31.00;;;18.17;;
11054;SDS011;5580;50.106;8.702;2022-11-20T01:06:01;30.77;;;18.30;;
11054;SDS011;5580;50.106;8.702;2022-11-20T01:08:31;27.53;;;17.50;;
11054;SDS011;5580;50.106;8.702;2022-11-20T01:11:05;30.50;;;19.10;;
11054;SDS011;5580;50.106;8.702;2022-11-20T01:13:33;30.13;;;18.10;;
11054;SDS011;5580;50.106;8.702;2022-11-20T01:16:06;30.03;;;18.57;;
11054;SDS011;5580;50.106;8.702;2022-11-20T01:18:34;28.50;;;18.00;;
11054;SDS011;5580;50.106;8.702;2022-11-20T01:21:02;27.37;;;17.90;;
11054;SDS011;5580;50.106;8.702;2022-11-20T01:23:33;28.57;;;17.77;;
11054;SDS011;5580;50.106;8.702;2022-11-20T01:26:01;30.40;;;18.03;;
11054;SDS011;5580;50.106;8.702;2022-11-20T01:28:28;30.50;;;18.13;;
11054;SDS011;5580;50.106;8.702;2022-11-20T01:30:54;28.37;;;17.83;;
11054;SDS011;5580;50.106;8.702;2022-11-20T01:33:20;28.70;;;17.60;;
11054;SDS011;5580;50.106;8.702;2022-11-20T01:35:45;29.93;;;17.70;;
11054;SDS011;5580;50.106;8.702;2022-11-20T01:38:11;28.53;;;17.87;;
11054;SDS011;5580;50.106;8.702;2022-11-20T01:40:36;28.17;;;17.37;;
11054;SDS011;5580;50.106;8.702;2022-11-20T01:43:18;29.10;;;18.33;;
11054;SDS011;5580;50.106;8.702;2022-11-20T01:51:43;29.13;;;16.73;;
11054;SDS011;5580;50.106;8.702;2022-11-20T01:54:15;30.00;;;18.10;;
11054;SDS011;5580;50.106;8.702;2022-11-20T01:56:45;27.97;;;17.53;;
11054;SDS011;5580;50.106;8.702;2022-11-20T01:59:13;30.20;;;17.93;;
11054;SDS011;5580;50.106;8.702;2022-11-20T02:01:42;29.47;;;17.87;;
11054;SDS011;5580;50.106;8.702;2022-11-20T02:04:08;30.47;;;17.97;;
11054;SDS011;5580;50.106;8.702;2022-11-20T02:06:36;30.57;;;18.57;;
11054;SDS011;5580;50.106;8.702;2022-11-20T02:09:06;29.43;;;18.30;;
11054;SDS011;5580;50.106;8.702;2022-11-20T02:11:31;29.63;;;18.70;;
11054;SDS011;5580;50.106;8.702;2022-11-20T02:13:57;29.73;;;18.30;;
11054;SDS011;5580;50.106;8.702;2022-11-20T02:16:25;30.63;;;18.90;;
11054;SDS011;5580;50.106;8.702;2022-11-20T02:18:54;31.27;;;19.40;;
11054;SDS011;5580;50.106;8.702;2022-11-20T02:24:11;31.03;;;18.77;;
11054;SDS011;5580;50.106;8.702;2022-11-20T02:26:51;31.43;;;18.73;;
11054;SDS011;5580;50.106;8.702;2022-11-20T02:29:42;30.67;;;18.60;;
11054;SDS011;5580;50.106;8.702;2022-11-20T02:32:23;32.20;;;19.50;;
11054;SDS011;5580;50.106;8.702;2022-11-20T02:34:50;31.27;;;19.03;;
11054;SDS011;5580;50.106;8.702;2022-11-20T02:37:16;31.70;;;19.20;;
11054;SDS011;5580;50.106;8.702;2022-11-20T02:39:44;36.10;;;20.50;;
11054;SDS011;5580;50.106;8.702;2022-11-20T02:42:12;33.87;;;19.77;;
11054;SDS011;5580;50.106;8.702;2022-11-20T02:44:38;31.73;;;19.37;;
11054;SDS011;5580;50.106;8.702;2022-11-20T02:47:03;31.93;;;20.17;;
11054;SDS011;5580;50.106;8.702;2022-11-20T02:49:29;32.53;;;19.93;;
11054;SDS011;5580;50.106;8.702;2022-11-20T02:51:55;32.30;;;19.00;;
11054;SDS011;5580;50.106;8.702;2022-11-20T02:54:20;36.37;;;20.87;;
11054;SDS011;5580;50.106;8.702;2022-11-20T02:56:46;32.67;;;20.57;;
11054;SDS011;5580;50.106;8.702;2022-11-20T02:59:11;31.60;;;18.97;;
11054;SDS011;5580;50.106;8.702;2022-11-20T03:01:37;30.77;;;19.53;;
11054;SDS011;5580;50.106;8.702;2022-11-20T03:04:03;30.73;;;18.73;;
11054;SDS011;5580;50.106;8.702;2022-11-20T03:06:29;31.27;;;18.00;;
11054;SDS011;5580;50.106;8.702;2022-11-20T03:08:55;30.83;;;18.60;;
11054;SDS011;5580;50.106;8.702;2022-11-20T03:11:20;30.73;;;17.73;;
11054;SDS011;5580;50.106;8.702;2022-11-20T03:13:46;30.13;;;17.73;;
11054;SDS011;5580;50.106;8.702;2022-11-20T03:16:15;27.77;;;17.67;;
11054;SDS011;5580;50.106;8.702;2022-11-20T03:18:43;29.40;;;18.00;;
11054;SDS011;5580;50.106;8.702;2022-11-20T03:21:09;27.27;;;17.33;;
11054;SDS011;5580;50.106;8.702;2022-11-20T03:23:36;29.47;;;18.33;;
11054;SDS011;5580;50.106;8.702;2022-11-20T03:28:42;28.60;;;17.47;;
11054;SDS011;5580;50.106;8.702;2022-11-20T03:31:13;27.50;;;17.93;;
11054;SDS011;5580;50.106;8.702;2022-11-20T03:33:41;31.47;;;18.43;;
11054;SDS011;5580;50.106;8.702;2022-11-20T03:36:08;28.83;;;17.57;;
11054;SDS011;5580;50.106;8.702;2022-11-20T03:38:35;30.50;;;18.63;;
11054;SDS011;5580;50.106;8.702;2022-11-20T03:41:03;31.47;;;18.63;;
11054;SDS011;5580;50.106;8.702;2022-11-20T03:43:30;35.13;;;19.87;;
11054;SDS011;5580;50.106;8.702;2022-11-20T03:45:56;30.40;;;18.70;;
11054;SDS011;5580;50.106;8.702;2022-11-20T03:48:22;30.30;;;18.50;;
11054;SDS011;5580;50.106;8.702;2022-11-20T03:50:48;30.57;;;18.53;;
11054;SDS011;5580;50.106;8.702;2022-11-20T03:53:14;30.97;;;18.23;;
11054;SDS011;5580;50.106;8.702;2022-11-20T03:55:40;30.27;;;18.33;;
11054;SDS011;5580;50.106;8.702;2022-11-20T03:58:06;31.13;;;18.83;;
11054;SDS011;5580;50.106;8.702;2022-11-20T04:00:31;30.93;;;18.87;;
11054;SDS011;5580;50.106;8.702;2022-11-20T04:03:00;31.47;;;18.80;;
11054;SDS011;5580;50.106;8.702;2022-11-20T04:05:26;30.53;;;19.23;;
11054;SDS011;5580;50.106;8.702;2022-11-20T04:07:52;33.63;;;19.90;;
11054;SDS011;5580;50.106;8.702;2022-11-20T04:10:17;32.10;;;19.40;;
11054;SDS011;5580;50.106;8.702;2022-11-20T04:12:43;31.47;;;19.67;;
11054;SDS011;5580;50.106;8.702;2022-11-20T04:15:09;34.83;;;20.40;;
11054;SDS011;5580;50.106;8.702;2022-11-20T04:17:34;29.70;;;18.07;;
11054;SDS011;5580;50.106;8.702;2022-11-20T04:20:00;30.03;;;18.93;;
11054;SDS011;5580;50.106;8.702;2022-11-20T04:22:26;31.90;;;19.33;;
11054;SDS011;5580;50.106;8.702;2022-11-20T04:24:52;31.53;;;20.23;;
11054;SDS011;5580;50.106;8.702;2022-11-20T04:27:18;31.50;;;19.63;;
11054;SDS011;5580;50.106;8.702;2022-11-20T04:29:43;32.40;;;19.10;;
11054;SDS011;5580;50.106;8.702;2022-11-20T04:32:09;31.73;;;19.47;;
11054;SDS011;5580;50.106;8.702;2022-11-20T04:34:34;35.97;;;19.87;;
11054;SDS011;5580;50.106;8.702;2022-11-20T04:37:00;34.13;;;20.30;;
11054;SDS011;5580;50.106;8.702;2022-11-20T04:39:26;35.13;;;20.57;;
11054;SDS011;5580;50.106;8.702;2022-11-20T04:41:51;31.07;;;19.67;;
11054;SDS011;5580;50.106;8.702;2022-11-20T04:44:37;31.20;;;19.27;;
11054;SDS011;5580;50.106;8.702;2022-11-20T04:47:03;31.43;;;19.00;;
11054;SDS011;5580;50.106;8.702;2022-11-20T04:49:28;32.40;;;19.43;;
11054;SDS011;5580;50.106;8.702;2022-11-20T04:51:54;32.87;;;18.93;;
11054;SDS011;5580;50.106;8.702;2022-11-20T04:54:19;31.80;;;19.27;;
11054;SDS011;5580;50.106;8.702;2022-11-20T04:56:47;32.40;;;19.47;;
11054;SDS011;5580;50.106;8.702;2022-11-20T04:59:13;31.77;;;18.80;;
11054;SDS011;5580;50.106;8.702;2022-11-20T05:01:38;32.93;;;19.90;;
11054;SDS011;5580;50.106;8.702;2022-11-20T05:04:04;33.67;;;19.43;;
11054;SDS011;5580;50.106;8.702;2022-11-20T05:06:30;35.07;;;20.03;;
11054;SDS011;5580;50.106;8.702;2022-11-20T05:08:57;31.63;;;18.87;;
11054;SDS011;5580;50.106;8.702;2022-11-20T05:11:22;30.80;;;18.63;;
11054;SDS011;5580;50.106;8.702;2022-11-20T05:13:49;30.67;;;19.20;;
11054;SDS011;5580;50.106;8.702;2022-11-20T05:16:17;31.57;;;19.23;;
11054;SDS011;5580;50.106;8.702;2022-11-20T05:18:44;31.93;;;19.60;;
11054;SDS011;5580;50.106;8.702;2022-11-20T05:21:10;32.80;;;19.37;;
11054;SDS011;5580;50.106;8.702;2022-11-20T05:23:38;31.90;;;19.13;;
11054;SDS011;5580;50.106;8.702;2022-11-20T05:26:04;33.77;;;19.40;;
11054;SDS011;5580;50.106;8.702;2022-11-20T05:28:31;35.73;;;20.70;;
11054;SDS011;5580;50.106;8.702;2022-11-20T05:31:08;33.70;;;20.07;;
11054;SDS011;5580;50.106;8.702;2022-11-20T05:33:35;36.03;;;21.13;;
11054;SDS011;5580;50.106;8.702;2022-11-20T05:36:02;34.97;;;20.53;;
11054;SDS011;5580;50.106;8.702;2022-11-20T05:38:28;33.83;;;20.00;;
11054;SDS011;5580;50.106;8.702;2022-11-20T05:40:54;34.53;;;20.73;;
11054;SDS011;5580;50.106;8.702;2022-11-20T05:43:20;38.73;;;22.53;;
11054;SDS011;5580;50.106;8.702;2022-11-20T05:45:54;37.53;;;21.70;;
11054;SDS011;5580;50.106;8.702;2022-11-20T05:48:20;37.40;;;21.67;;
11054;SDS011;5580;50.106;8.702;2022-11-20T05:50:46;36.17;;;21.27;;
11054;SDS011;5580;50.106;8.702;2022-11-20T05:53:12;34.87;;;20.73;;
11054;SDS011;5580;50.106;8.702;2022-11-20T05:55:38;34.97;;;21.13;;
11054;SDS011;5580;50.106;8.702;2022-11-20T05:58:03;33.77;;;19.97;;
11054;SDS011;5580;50.106;8.702;2022-11-20T06:00:29;38.50;;;21.17;;
11054;SDS011;5580;50.106;8.702;2022-11-20T06:02:54;35.97;;;21.13;;
11054;SDS011;5580;50.106;8.702;2022-11-20T06:05:20;40.70;;;22.43;;
11054;SDS011;5580;50.106;8.702;2022-11-20T06:07:46;37.30;;;20.53;;
11054;SDS011;5580;50.106;8.702;2022-11-20T06:10:11;36.23;;;20.93;;
11054;SDS011;5580;50.106;8.702;2022-11-20T06:12:37;35.57;;;20.23;;
11054;SDS011;5580;50.106;8.702;2022-11-20T06:15:03;42.33;;;22.17;;
11054;SDS011;5580;50.106;8.702;2022-11-20T06:17:29;40.40;;;22.60;;
11054;SDS011;5580;50.106;8.702;2022-11-20T06:19:55;40.40;;;22.10;;
11054;SDS011;5580;50.106;8.702;2022-11-20T06:22:20;39.83;;;22.13;;
11054;SDS011;5580;50.106;8.702;2022-11-20T06:24:46;38.27;;;21.40;;
11054;SDS011;5580;50.106;8.702;2022-11-20T06:27:11;39.20;;;21.73;;
11054;SDS011;5580;50.106;8.702;2022-11-20T06:29:37;38.30;;;21.40;;
11054;SDS011;5580;50.106;8.702;2022-11-20T06:32:02;38.70;;;21.37;;
11054;SDS011;5580;50.106;8.702;2022-11-20T06:34:28;39.50;;;21.33;;
11054;SDS011;5580;50.106;8.702;2022-11-20T06:36:54;34.40;;;19.90;;
11054;SDS011;5580;50.106;8.702;2022-11-20T06:39:19;36.07;;;21.03;;
11054;SDS011;5580;50.106;8.702;2022-11-20T06:41:45;37.20;;;21.40;;
11054;SDS011;5580;50.106;8.702;2022-11-20T06:44:11;37.90;;;20.93;;
11054;SDS011;5580;50.106;8.702;2022-11-20T06:46:36;34.30;;;19.30;;
11054;SDS011;5580;50.106;8.702;2022-11-20T06:49:02;34.50;;;19.77;;
11054;SDS011;5580;50.106;8.702;2022-11-20T06:51:27;38.07;;;21.27;;
11054;SDS011;5580;50.106;8.702;2022-11-20T06:53:53;36.60;;;20.87;;
11054;SDS011;5580;50.106;8.702;2022-11-20T06:56:19;37.63;;;20.40;;
11054;SDS011;5580;50.106;8.702;2022-11-20T06:58:44;39.57;;;20.50;;
11054;SDS011;5580;50.106;8.702;2022-11-20T07:01:11;37.83;;;20.60;;
11054;SDS011;5580;50.106;8.702;2022-11-20T07:03:38;40.77;;;22.67;;
11054;SDS011;5580;50.106;8.702;2022-11-20T07:06:05;37.57;;;21.37;;
11054;SDS011;5580;50.106;8.702;2022-11-20T07:08:31;43.90;;;23.40;;
11054;SDS011;5580;50.106;8.702;2022-11-20T07:10:58;47.63;;;24.00;;
11054;SDS011;5580;50.106;8.702;2022-11-20T07:13:25;51.23;;;23.93;;
11054;SDS011;5580;50.106;8.702;2022-11-20T07:15:51;47.37;;;24.53;;
11054;SDS011;5580;50.106;8.702;2022-11-20T07:18:16;44.40;;;22.87;;
11054;SDS011;5580;50.106;8.702;2022-11-20T07:20:42;43.67;;;22.23;;
11054;SDS011;5580;50.106;8.702;2022-11-20T07:23:08;44.33;;;23.10;;
11054;SDS011;5580;50.106;8.702;2022-11-20T07:25:33;44.53;;;22.50;;
11054;SDS011;5580;50.106;8.702;2022-11-20T07:27:59;42.50;;;22.23;;
11054;SDS011;5580;50.106;8.702;2022-11-20T07:30:26;41.33;;;21.43;;
11054;SDS011;5580;50.106;8.702;2022-11-20T07:32:52;44.53;;;22.87;;
11054;SDS011;5580;50.106;8.702;2022-11-20T07:35:19;45.27;;;22.73;;
11054;SDS011;5580;50.106;8.702;2022-11-20T07:37:45;47.27;;;24.07;;
11054;SDS011;5580;50.106;8.702;2022-11-20T07:40:11;46.27;;;23.07;;
11054;SDS011;5580;50.106;8.702;2022-11-20T07:45:16;47.20;;;23.00;;
11054;SDS011;5580;50.106;8.702;2022-11-20T07:47:42;47.03;;;23.93;;
11054;SDS011;5580;50.106;8.702;2022-11-20T07:50:07;44.33;;;23.40;;
11054;SDS011;5580;50.106;8.702;2022-11-20T07:52:33;49.40;;;23.93;;
11054;SDS011;5580;50.106;8.702;2022-11-20T07:54:59;45.03;;;24.10;;
11054;SDS011;5580;50.106;8.702;2022-11-20T07:57:24;44.40;;;23.70;;
11054;SDS011;5580;50.106;8.702;2022-11-20T07:59:50;46.37;;;24.83;;
11054;SDS011;5580;50.106;8.702;2022-11-20T08:02:15;45.27;;;24.33;;
11054;SDS011;5580;50.106;8.702;2022-11-20T08:04:41;44.97;;;24.33;;
11054;SDS011;5580;50.106;8.702;2022-11-20T08:07:06;42.77;;;23.47;;
11054;SDS011;5580;50.106;8.702;2022-11-20T08:09:32;47.07;;;24.90;;
11054;SDS011;5580;50.106;8.702;2022-11-20T08:11:57;50.03;;;24.53;;
11054;SDS011;5580;50.106;8.702;2022-11-20T08:14:42;45.33;;;22.73;;
11054;SDS011;5580;50.106;8.702;2022-11-20T08:17:08;44.67;;;24.83;;
11054;SDS011;5580;50.106;8.702;2022-11-20T08:19:33;42.20;;;21.70;;
11054;SDS011;5580;50.106;8.702;2022-11-20T08:21:59;43.30;;;23.07;;
11054;SDS011;5580;50.106;8.702;2022-11-20T08:24:24;43.07;;;22.87;;
11054;SDS011;5580;50.106;8.702;2022-11-20T08:26:51;37.87;;;21.73;;
11054;SDS011;5580;50.106;8.702;2022-11-20T08:29:17;37.10;;;21.30;;
11054;SDS011;5580;50.106;8.702;2022-11-20T08:31:43;38.63;;;20.93;;
11054;SDS011;5580;50.106;8.702;2022-11-20T08:34:08;38.30;;;20.60;;
11054;SDS011;5580;50.106;8.702;2022-11-20T08:36:34;39.83;;;21.27;;
11054;SDS011;5580;50.106;8.702;2022-11-20T08:39:00;37.37;;;20.17;;
11054;SDS011;5580;50.106;8.702;2022-11-20T08:41:26;38.00;;;20.37;;
11054;SDS011;5580;50.106;8.702;2022-11-20T08:46:17;38.50;;;20.53;;
11054;SDS011;5580;50.106;8.702;2022-11-20T08:48:43;37.80;;;20.67;;
11054;SDS011;5580;50.106;8.702;2022-11-20T08:51:09;36.33;;;20.57;;
11054;SDS011;5580;50.106;8.702;2022-11-20T08:53:36;39.20;;;20.90;;
11054;SDS011;5580;50.106;8.702;2022-11-20T08:56:01;37.53;;;20.17;;
11054;SDS011;5580;50.106;8.702;2022-11-20T08:58:27;38.50;;;21.17;;
11054;SDS011;5580;50.106;8.702;2022-11-20T09:00:53;38.20;;;21.77;;
11054;SDS011;5580;50.106;8.702;2022-11-20T09:03:18;35.67;;;21.47;;
11054;SDS011;5580;50.106;8.702;2022-11-20T09:05:44;35.87;;;20.47;;
11054;SDS011;5580;50.106;8.702;2022-11-20T09:08:10;37.37;;;20.23;;
11054;SDS011;5580;50.106;8.702;2022-11-20T09:10:36;37.97;;;21.10;;
11054;SDS011;5580;50.106;8.702;2022-11-20T09:13:04;37.07;;;20.73;;
11054;SDS011;5580;50.106;8.702;2022-11-20T09:15:30;37.97;;;21.60;;
11054;SDS011;5580;50.106;8.702;2022-11-20T09:17:57;36.07;;;21.30;;
11054;SDS011;5580;50.106;8.702;2022-11-20T09:20:24;39.07;;;21.47;;
11054;SDS011;5580;50.106;8.702;2022-11-20T09:22:50;36.07;;;20.87;;
11054;SDS011;5580;50.106;8.702;2022-11-20T09:25:16;32.97;;;20.77;;
11054;SDS011;5580;50.106;8.702;2022-11-20T09:27:42;36.47;;;21.87;;
11054;SDS011;5580;50.106;8.702;2022-11-20T09:30:09;38.27;;;22.03;;
11054;SDS011;5580;50.106;8.702;2022-11-20T09:32:35;39.37;;;22.27;;
11054;SDS011;5580;50.106;8.702;2022-11-20T09:35:01;42.37;;;22.60;;
11054;SDS011;5580;50.106;8.702;2022-11-20T09:37:27;41.57;;;22.83;;
11054;SDS011;5580;50.106;8.702;2022-11-20T09:39:52;40.20;;;22.93;;
11054;SDS011;5580;50.106;8.702;2022-11-20T09:45:10;40.20;;;23.57;;
11054;SDS011;5580;50.106;8.702;2022-11-20T09:47:48;40.67;;;23.60;;
11054;SDS011;5580;50.106;8.702;2022-11-20T09:50:31;42.47;;;23.83;;
11054;SDS011;5580;50.106;8.702;2022-11-20T09:55:44;43.00;;;24.33;;
11054;SDS011;5580;50.106;8.702;2022-11-20T10:01:07;41.10;;;24.80;;
11054;SDS011;5580;50.106;8.702;2022-11-20T10:03:41;41.00;;;23.60;;
11054;SDS011;5580;50.106;8.702;2022-11-20T10:06:10;41.37;;;24.93;;
11054;SDS011;5580;50.106;8.702;2022-11-20T10:08:42;41.70;;;25.07;;
11054;SDS011;5580;50.106;8.702;2022-11-20T10:16:35;41.97;;;23.37;;
11054;SDS011;5580;50.106;8.702;2022-11-20T10:22:06;40.23;;;23.87;;
11054;SDS011;5580;50.106;8.702;2022-11-20T10:27:23;38.10;;;22.90;;
11054;SDS011;5580;50.106;8.702;2022-11-20T10:32:54;38.73;;;23.83;;
11054;SDS011;5580;50.106;8.702;2022-11-20T10:38:21;40.47;;;23.77;;
11054;SDS011;5580;50.106;8.702;2022-11-20T10:40:52;38.83;;;22.93;;
11054;SDS011;5580;50.106;8.702;2022-11-20T10:43:41;38.40;;;22.93;;
11054;SDS011;5580;50.106;8.702;2022-11-20T10:46:09;39.17;;;23.77;;
11054;SDS011;5580;50.106;8.702;2022-11-20T10:48:43;42.23;;;24.20;;
11054;SDS011;5580;50.106;8.702;2022-11-20T10:51:30;42.17;;;24.10;;
11054;SDS011;5580;50.106;8.702;2022-11-20T11:01:48;42.73;;;24.30;;
11054;SDS011;5580;50.106;8.702;2022-11-20T11:04:59;46.03;;;26.00;;
11054;SDS011;5580;50.106;8.702;2022-11-20T11:09:35;45.93;;;25.90;;
11054;SDS011;5580;50.106;8.702;2022-11-20T11:12:06;45.13;;;26.00;;
11054;SDS011;5580;50.106;8.702;2022-11-20T11:14:46;46.10;;;26.97;;
11054;SDS011;5580;50.106;8.702;2022-11-20T11:20:02;44.93;;;26.37;;
11054;SDS011;5580;50.106;8.702;2022-11-20T11:22:29;45.40;;;26.90;;
11054;SDS011;5580;50.106;8.702;2022-11-20T11:24:56;46.27;;;27.37;;
11054;SDS011;5580;50.106;8.702;2022-11-20T11:27:22;47.87;;;27.53;;
11054;SDS011;5580;50.106;8.702;2022-11-20T11:29:48;45.37;;;27.07;;
11054;SDS011;5580;50.106;8.702;2022-11-20T11:34:40;47.57;;;26.60;;
11054;SDS011;5580;50.106;8.702;2022-11-20T11:37:19;46.10;;;26.03;;
11054;SDS011;5580;50.106;8.702;2022-11-20T11:39:48;47.50;;;27.07;;
11054;SDS011;5580;50.106;8.702;2022-11-20T11:42:16;42.30;;;25.57;;
11054;SDS011;5580;50.106;8.702;2022-11-20T11:44:44;40.93;;;24.57;;
11054;SDS011;5580;50.106;8.702;2022-11-20T11:55:46;41.70;;;25.70;;
11054;SDS011;5580;50.106;8.702;2022-11-20T12:03:44;40.73;;;24.27;;
11054;SDS011;5580;50.106;8.702;2022-11-20T12:06:20;45.47;;;25.70;;
11054;SDS011;5580;50.106;8.702;2022-11-20T12:08:51;38.57;;;23.13;;
11054;SDS011;5580;50.106;8.702;2022-11-20T12:16:53;39.70;;;23.80;;
11054;SDS011;5580;50.106;8.702;2022-11-20T12:19:20;40.40;;;23.70;;
11054;SDS011;5580;50.106;8.702;2022-11-20T12:21:52;38.60;;;23.20;;
11054;SDS011;5580;50.106;8.702;2022-11-20T12:24:52;34.90;;;22.17;;
11054;SDS011;5580;50.106;8.702;2022-11-20T12:27:39;35.70;;;21.60;;
11054;SDS011;5580;50.106;8.702;2022-11-20T12:30:23;36.50;;;22.30;;
11054;SDS011;5580;50.106;8.702;2022-11-20T12:38:52;37.13;;;22.13;;
11054;SDS011;5580;50.106;8.702;2022-11-20T12:55:50;41.63;;;24.40;;
11054;SDS011;5580;50.106;8.702;2022-11-20T12:59:04;41.10;;;24.63;;
11054;SDS011;5580;50.106;8.702;2022-11-20T13:04:18;42.93;;;24.73;;
11054;SDS011;5580;50.106;8.702;2022-11-20T13:07:12;38.00;;;23.93;;
11054;SDS011;5580;50.106;8.702;2022-11-20T13:09:40;39.27;;;23.43;;
11054;SDS011;5580;50.106;8.702;2022-11-20T13:12:34;38.60;;;23.47;;
11054;SDS011;5580;50.106;8.702;2022-11-20T13:17:55;37.90;;;23.00;;
11054;SDS011;5580;50.106;8.702;2022-11-20T13:20:26;37.00;;;21.40;;
11054;SDS011;5580;50.106;8.702;2022-11-20T13:22:53;36.83;;;22.23;;
11054;SDS011;5580;50.106;8.702;2022-11-20T13:27:53;37.67;;;22.00;;
11054;SDS011;5580;50.106;8.702;2022-11-20T13:30:21;37.10;;;21.17;;
11054;SDS011;5580;50.106;8.702;2022-11-20T13:35:33;33.30;;;19.90;;
11054;SDS011;5580;50.106;8.702;2022-11-20T13:38:02;33.50;;;19.63;;
11054;SDS011;5580;50.106;8.702;2022-11-20T13:40:30;33.83;;;20.10;;
11054;SDS011;5580;50.106;8.702;2022-11-20T13:43:01;32.80;;;19.63;;
11054;SDS011;5580;50.106;8.702;2022-11-20T13:45:39;33.97;;;20.93;;
11054;SDS011;5580;50.106;8.702;2022-11-20T13:48:15;31.33;;;19.30;;
11054;SDS011;5580;50.106;8.702;2022-11-20T14:02:14;33.50;;;19.73;;
11054;SDS011;5580;50.106;8.702;2022-11-20T14:04:46;33.93;;;19.97;;
11054;SDS011;5580;50.106;8.702;2022-11-20T14:07:13;34.97;;;19.97;;
11054;SDS011;5580;50.106;8.702;2022-11-20T14:09:48;32.20;;;20.03;;
11054;SDS011;5580;50.106;8.702;2022-11-20T14:12:16;35.10;;;20.37;;
11054;SDS011;5580;50.106;8.702;2022-11-20T14:14:48;29.20;;;18.70;;
11054;SDS011;5580;50.106;8.702;2022-11-20T14:17:23;29.77;;;18.13;;
11054;SDS011;5580;50.106;8.702;2022-11-20T14:19:50;33.63;;;19.80;;
11054;SDS011;5580;50.106;8.702;2022-11-20T14:22:21;30.20;;;18.30;;
11054;SDS011;5580;50.106;8.702;2022-11-20T14:24:49;30.90;;;18.73;;
11054;SDS011;5580;50.106;8.702;2022-11-20T14:27:25;31.07;;;18.73;;
11054;SDS011;5580;50.106;8.702;2022-11-20T14:29:51;32.23;;;19.40;;
11054;SDS011;5580;50.106;8.702;2022-11-20T14:32:17;32.10;;;19.53;;
11054;SDS011;5580;50.106;8.702;2022-11-20T14:34:45;32.77;;;18.73;;
11054;SDS011;5580;50.106;8.702;2022-11-20T14:37:17;33.97;;;19.43;;
11054;SDS011;5580;50.106;8.702;2022-11-20T14:39:51;30.87;;;19.33;;
11054;SDS011;5580;50.106;8.702;2022-11-20T14:42:22;32.43;;;18.97;;
11054;SDS011;5580;50.106;8.702;2022-11-20T14:44:50;31.73;;;19.27;;
11054;SDS011;5580;50.106;8.702;2022-11-20T14:47:18;29.40;;;18.20;;
11054;SDS011;5580;50.106;8.702;2022-11-20T14:49:50;32.87;;;21.30;;
11054;SDS011;5580;50.106;8.702;2022-11-20T14:52:21;34.33;;;21.43;;
11054;SDS011;5580;50.106;8.702;2022-11-20T14:57:27;30.23;;;19.17;;
11054;SDS011;5580;50.106;8.702;2022-11-20T15:02:41;30.03;;;18.90;;
11054;SDS011;5580;50.106;8.702;2022-11-20T15:05:08;29.77;;;18.77;;
11054;SDS011;5580;50.106;8.702;2022-11-20T15:07:36;30.77;;;18.87;;
11054;SDS011;5580;50.106;8.702;2022-11-20T15:12:32;32.77;;;19.90;;
11054;SDS011;5580;50.106;8.702;2022-11-20T15:15:01;31.87;;;19.37;;
11054;SDS011;5580;50.106;8.702;2022-11-20T15:17:28;30.90;;;19.00;;
11054;SDS011;5580;50.106;8.702;2022-11-20T15:19:55;31.57;;;18.57;;
11054;SDS011;5580;50.106;8.702;2022-11-20T15:22:21;30.37;;;18.87;;
11054;SDS011;5580;50.106;8.702;2022-11-20T15:24:46;32.13;;;19.13;;
11054;SDS011;5580;50.106;8.702;2022-11-20T15:27:12;31.30;;;19.27;;
11054;SDS011;5580;50.106;8.702;2022-11-20T15:29:37;31.37;;;19.20;;
11054;SDS011;5580;50.106;8.702;2022-11-20T15:32:03;30.43;;;18.90;;
11054;SDS011;5580;50.106;8.702;2022-11-20T15:34:29;31.13;;;19.70;;
11054;SDS011;5580;50.106;8.702;2022-11-20T15:36:55;33.17;;;20.67;;
11054;SDS011;5580;50.106;8.702;2022-11-20T15:39:20;34.77;;;20.20;;
11054;SDS011;5580;50.106;8.702;2022-11-20T15:41:46;34.20;;;21.20;;
11054;SDS011;5580;50.106;8.702;2022-11-20T15:44:12;37.23;;;23.40;;
11054;SDS011;5580;50.106;8.702;2022-11-20T15:46:39;41.60;;;24.70;;
11054;SDS011;5580;50.106;8.702;2022-11-20T15:49:11;39.37;;;23.23;;
11054;SDS011;5580;50.106;8.702;2022-11-20T15:51:39;38.33;;;23.07;;
11054;SDS011;5580;50.106;8.702;2022-11-20T15:54:18;38.07;;;23.50;;
11054;SDS011;5580;50.106;8.702;2022-11-20T15:56:46;36.70;;;22.57;;
11054;SDS011;5580;50.106;8.702;2022-11-20T15:59:12;36.17;;;22.03;;
11054;SDS011;5580;50.106;8.702;2022-11-20T16:01:41;35.23;;;22.03;;
11054;SDS011;5580;50.106;8.702;2022-11-20T16:04:11;32.97;;;20.83;;
11054;SDS011;5580;50.106;8.702;2022-11-20T16:06:37;33.30;;;20.10;;
11054;SDS011;5580;50.106;8.702;2022-11-20T16:09:03;31.37;;;19.27;;
11054;SDS011;5580;50.106;8.702;2022-11-20T16:11:29;33.90;;;19.87;;
11054;SDS011;5580;50.106;8.702;2022-11-20T16:13:54;28.93;;;17.53;;
11054;SDS011;5580;50.106;8.702;2022-11-20T16:16:39;30.97;;;18.23;;
11054;SDS011;5580;50.106;8.702;2022-11-20T16:19:08;30.63;;;18.47;;
11054;SDS011;5580;50.106;8.702;2022-11-20T16:21:35;30.67;;;19.50;;
11054;SDS011;5580;50.106;8.702;2022-11-20T16:24:03;31.80;;;20.13;;
11054;SDS011;5580;50.106;8.702;2022-11-20T16:26:30;33.53;;;20.17;;
11054;SDS011;5580;50.106;8.702;2022-11-20T16:28:57;34.33;;;20.30;;
11054;SDS011;5580;50.106;8.702;2022-11-20T16:31:24;35.17;;;20.53;;
11054;SDS011;5580;50.106;8.702;2022-11-20T16:33:50;31.67;;;19.10;;
11054;SDS011;5580;50.106;8.702;2022-11-20T16:36:20;31.40;;;19.23;;
11054;SDS011;5580;50.106;8.702;2022-11-20T16:38:51;32.27;;;19.47;;
11054;SDS011;5580;50.106;8.702;2022-11-20T16:41:18;30.30;;;18.53;;
11054;SDS011;5580;50.106;8.702;2022-11-20T16:43:44;32.53;;;19.20;;
11054;SDS011;5580;50.106;8.702;2022-11-20T16:46:12;30.00;;;18.80;;
11054;SDS011;5580;50.106;8.702;2022-11-20T16:48:38;30.60;;;19.13;;
11054;SDS011;5580;50.106;8.702;2022-11-20T16:51:04;29.53;;;19.13;;